Time;durP1;ratioP1;P1;durP2;ratioP2;P2;SDS_P1;SDS_P2;PMS_P1;PMS_P2;Temp;Humidity;BMP_temperature;BMP_pressure;BME280_temperature;BME280_humidity;BME280_pressure;Samples;Min_cycle;Max_cycle;Signal;HPM_P1;HPM_P2
2023/02/17 00:00:00;;;;;;;0.9;0.9;;;;;;;10.1;100.0;101760;;;;
2023/02/17 00:01:00;;;;;;;0.9;0.9;;;;;;;10.1;100.0;101760;;;;
2023/02/17 00:02:00;;;;;;;0.9;0.9;;;;;;;10.1;100.0;101760;;;;
2023/02/17 00:03:00;;;;;;;0.9;0.9;;;;;;;10.1;100.0;101760;;;;
2023/02/17 00:04:00;;;;;;;0.9;0.9;;;;;;;10.1;100.0;101760;;;;
2023/02/17 00:05:00;;;;;;;0.9;0.9;;;;;;;10.2;100.0;101760;;;;
2023/02/17 00:06:04;;;;;;;0.9;0.9;;;;;;;10.2;100.0;101760;;;;
2023/02/17 00:07:00;;;;;;;0.9;0.9;;;;;;;10.2;100.0;101750;;;;
2023/02/17 00:08:00;;;;;;;0.9;0.9;;;;;;;10.2;100.0;101750;;;;
2023/02/17 00:09:00;;;;;;;0.9;0.9;;;;;;;10.2;100.0;101760;;;;
2023/02/17 00:10:00;;;;;;;0.9;0.9;;;;;;;10.2;100.0;101760;;;;
2023/02/17 00:11:00;;;;;;;0.9;0.9;;;;;;;10.1;100.0;101750;;;;
2023/02/17 00:12:00;;;;;;;0.9;0.9;;;;;;;10.1;100.0;101750;;;;
2023/02/17 00:13:00;;;;;;;0.9;0.9;;;;;;;10.1;100.0;101740;;;;
2023/02/17 00:14:00;;;;;;;0.9;0.9;;;;;;;10.1;100.0;101740;;;;
2023/02/17 00:15:00;;;;;;;0.9;0.9;;;;;;;10.1;100.0;101740;;;;
2023/02/17 00:16:05;;;;;;;0.9;0.9;;;;;;;10.1;100.0;101740;;;;
2023/02/17 00:17:00;;;;;;;0.9;0.9;;;;;;;10.1;100.0;101740;;;;
2023/02/17 00:18:00;;;;;;;0.9;0.9;;;;;;;10.1;100.0;101740;;;;
2023/02/17 00:19:00;;;;;;;0.9;0.9;;;;;;;10.1;100.0;101740;;;;
2023/02/17 00:20:00;;;;;;;0.8;0.8;;;;;;;10.1;100.0;101740;;;;
2023/02/17 00:21:09;;;;;;;0.8;0.8;;;;;;;10.1;100.0;101740;;;;
2023/02/17 00:22:01;;;;;;;0.8;0.8;;;;;;;10.1;100.0;101740;;;;
2023/02/17 00:23:00;;;;;;;0.8;0.8;;;;;;;10.1;100.0;101740;;;;
2023/02/17 00:24:00;;;;;;;0.8;0.8;;;;;;;10.1;100.0;101740;;;;
2023/02/17 00:25:00;;;;;;;0.8;0.8;;;;;;;10.2;100.0;101740;;;;
2023/02/17 00:26:04;;;;;;;0.8;0.8;;;;;;;10.2;100.0;101740;;;;
2023/02/17 00:27:00;;;;;;;0.8;0.8;;;;;;;10.2;100.0;101740;;;;
2023/02/17 00:28:00;;;;;;;0.8;0.8;;;;;;;10.2;100.0;101740;;;;
2023/02/17 00:29:00;;;;;;;0.8;0.8;;;;;;;10.1;100.0;101730;;;;
2023/02/17 00:30:00;;;;;;;0.8;0.8;;;;;;;10.1;100.0;101730;;;;
2023/02/17 00:31:05;;;;;;;0.8;0.8;;;;;;;10.1;100.0;101730;;;;
2023/02/17 00:32:00;;;;;;;0.8;0.8;;;;;;;10.1;100.0;101730;;;;
2023/02/17 00:33:00;;;;;;;0.8;0.8;;;;;;;10.1;100.0;101730;;;;
2023/02/17 00:34:00;;;;;;;0.8;0.8;;;;;;;10.1;100.0;101730;;;;
2023/02/17 00:35:00;;;;;;;0.8;0.8;;;;;;;10.2;100.0;101730;;;;
2023/02/17 00:36:03;;;;;;;0.8;0.8;;;;;;;10.2;100.0;101730;;;;
2023/02/17 00:37:00;;;;;;;0.8;0.8;;;;;;;10.1;100.0;101730;;;;
2023/02/17 00:38:00;;;;;;;0.8;0.8;;;;;;;10.1;100.0;101730;;;;
2023/02/17 00:39:00;;;;;;;0.8;0.8;;;;;;;10.1;100.0;101720;;;;
2023/02/17 00:40:00;;;;;;;0.8;0.8;;;;;;;10.1;100.0;101720;;;;
2023/02/17 00:41:00;;;;;;;0.8;0.8;;;;;;;10.2;100.0;101730;;;;
2023/02/17 00:42:00;;;;;;;0.8;0.8;;;;;;;10.2;100.0;101730;;;;
2023/02/17 00:43:00;;;;;;;0.8;0.8;;;;;;;10.2;100.0;101720;;;;
2023/02/17 00:44:00;;;;;;;0.8;0.8;;;;;;;10.2;100.0;101720;;;;
2023/02/17 00:45:00;;;;;;;0.8;0.8;;;;;;;10.1;100.0;101720;;;;
2023/02/17 00:46:02;;;;;;;0.8;0.8;;;;;;;10.1;100.0;101720;;;;
2023/02/17 00:47:00;;;;;;;0.8;0.8;;;;;;;10.1;100.0;101720;;;;
2023/02/17 00:48:00;;;;;;;0.8;0.8;;;;;;;10.1;100.0;101720;;;;
2023/02/17 00:49:00;;;;;;;0.8;0.8;;;;;;;10.2;100.0;101720;;;;
2023/02/17 00:50:00;;;;;;;0.8;0.8;;;;;;;10.2;100.0;101720;;;;
2023/02/17 00:51:00;;;;;;;0.8;0.8;;;;;;;10.2;100.0;101710;;;;
2023/02/17 00:52:01;;;;;;;0.8;0.8;;;;;;;10.2;100.0;101710;;;;
2023/02/17 00:53:00;;;;;;;0.8;0.8;;;;;;;10.2;100.0;101710;;;;
2023/02/17 00:54:00;;;;;;;0.8;0.8;;;;;;;10.2;100.0;101710;;;;
2023/02/17 00:55:00;;;;;;;0.8;0.8;;;;;;;10.2;100.0;101710;;;;
2023/02/17 00:56:00;;;;;;;0.8;0.8;;;;;;;10.2;100.0;101710;;;;
2023/02/17 00:57:00;;;;;;;0.8;0.8;;;;;;;10.1;100.0;101710;;;;
2023/02/17 00:58:00;;;;;;;0.8;0.8;;;;;;;10.1;100.0;101710;;;;
2023/02/17 00:59:00;;;;;;;0.8;0.8;;;;;;;10.1;100.0;101710;;;;
2023/02/17 01:00:00;;;;;;;0.9;0.9;;;;;;;10.1;100.0;101710;;;;
2023/02/17 01:01:00;;;;;;;0.9;0.9;;;;;;;10.1;100.0;101710;;;;
2023/02/17 01:02:00;;;;;;;0.9;0.9;;;;;;;10.1;100.0;101710;;;;
2023/02/17 01:03:00;;;;;;;0.9;0.9;;;;;;;10.1;100.0;101720;;;;
2023/02/17 01:04:00;;;;;;;0.9;0.9;;;;;;;10.1;100.0;101720;;;;
2023/02/17 01:05:00;;;;;;;0.9;0.9;;;;;;;10.1;100.0;101720;;;;
2023/02/17 01:06:04;;;;;;;0.9;0.9;;;;;;;10.1;100.0;101720;;;;
2023/02/17 01:07:00;;;;;;;0.9;0.9;;;;;;;10.1;100.0;101720;;;;
2023/02/17 01:08:00;;;;;;;0.9;0.9;;;;;;;10.1;100.0;101720;;;;
2023/02/17 01:09:01;;;;;;;0.9;0.9;;;;;;;10.2;100.0;101720;;;;
2023/02/17 01:10:00;;;;;;;0.9;0.9;;;;;;;10.2;100.0;101720;;;;
2023/02/17 01:11:00;;;;;;;0.9;0.9;;;;;;;10.1;100.0;101720;;;;
2023/02/17 01:12:00;;;;;;;0.9;0.9;;;;;;;10.1;100.0;101720;;;;
2023/02/17 01:13:00;;;;;;;0.9;0.9;;;;;;;10.2;100.0;101720;;;;
2023/02/17 01:14:01;;;;;;;0.9;0.9;;;;;;;10.2;100.0;101720;;;;
2023/02/17 01:15:00;;;;;;;0.9;0.9;;;;;;;10.2;100.0;101720;;;;
2023/02/17 01:16:00;;;;;;;0.9;0.9;;;;;;;10.2;100.0;101720;;;;
2023/02/17 01:17:00;;;;;;;0.9;0.9;;;;;;;10.1;100.0;101710;;;;
2023/02/17 01:18:01;;;;;;;0.9;0.9;;;;;;;10.1;100.0;101710;;;;
2023/02/17 01:19:01;;;;;;;0.9;0.9;;;;;;;10.1;100.0;101710;;;;
2023/02/17 01:20:00;;;;;;;0.8;0.8;;;;;;;10.1;100.0;101710;;;;
2023/02/17 01:21:00;;;;;;;0.8;0.8;;;;;;;10.1;100.0;101710;;;;
2023/02/17 01:22:00;;;;;;;0.8;0.8;;;;;;;10.1;100.0;101710;;;;
2023/02/17 01:23:00;;;;;;;0.8;0.8;;;;;;;10.1;100.0;101710;;;;
2023/02/17 01:24:01;;;;;;;0.8;0.8;;;;;;;10.1;100.0;101710;;;;
2023/02/17 01:25:00;;;;;;;0.8;0.8;;;;;;;10.2;100.0;101710;;;;
2023/02/17 01:26:00;;;;;;;0.8;0.8;;;;;;;10.2;100.0;101710;;;;
2023/02/17 01:27:00;;;;;;;0.8;0.8;;;;;;;10.2;100.0;101710;;;;
2023/02/17 01:28:00;;;;;;;0.8;0.8;;;;;;;10.2;100.0;101710;;;;
2023/02/17 01:29:00;;;;;;;0.8;0.8;;;;;;;10.2;100.0;101710;;;;
2023/02/17 01:30:00;;;;;;;0.8;0.8;;;;;;;10.2;100.0;101710;;;;
2023/02/17 01:31:04;;;;;;;0.8;0.8;;;;;;;10.2;100.0;101710;;;;
2023/02/17 01:32:00;;;;;;;0.8;0.8;;;;;;;10.2;100.0;101710;;;;
2023/02/17 01:33:00;;;;;;;0.8;0.8;;;;;;;10.2;100.0;101700;;;;
2023/02/17 01:34:01;;;;;;;0.8;0.8;;;;;;;10.2;100.0;101700;;;;
2023/02/17 01:35:00;;;;;;;0.8;0.8;;;;;;;10.2;100.0;101700;;;;
2023/02/17 01:36:01;;;;;;;0.8;0.8;;;;;;;10.2;100.0;101700;;;;
2023/02/17 01:37:00;;;;;;;0.8;0.8;;;;;;;10.1;100.0;101700;;;;
2023/02/17 01:38:00;;;;;;;0.8;0.8;;;;;;;10.1;100.0;101700;;;;
2023/02/17 01:39:00;;;;;;;0.8;0.8;;;;;;;10.2;100.0;101690;;;;
2023/02/17 01:40:00;;;;;;;0.9;0.9;;;;;;;10.2;100.0;101690;;;;
2023/02/17 01:41:00;;;;;;;0.9;0.9;;;;;;;10.2;100.0;101690;;;;
2023/02/17 01:42:00;;;;;;;0.9;0.9;;;;;;;10.2;100.0;101690;;;;
2023/02/17 01:43:00;;;;;;;0.9;0.9;;;;;;;10.1;100.0;101700;;;;
2023/02/17 01:44:10;;;;;;;0.9;0.9;;;;;;;10.1;100.0;101700;;;;
2023/02/17 01:45:10;;;;;;;0.9;0.9;;;;;;;10.2;100.0;101710;;;;
2023/02/17 01:46:01;;;;;;;0.9;0.9;;;;;;;10.2;100.0;101710;;;;
2023/02/17 01:47:00;;;;;;;0.9;0.9;;;;;;;10.1;100.0;101700;;;;
2023/02/17 01:48:00;;;;;;;0.9;0.9;;;;;;;10.1;100.0;101700;;;;
2023/02/17 01:49:02;;;;;;;0.9;0.9;;;;;;;10.1;100.0;101700;;;;
2023/02/17 01:50:00;;;;;;;0.9;0.9;;;;;;;10.1;100.0;101700;;;;
2023/02/17 01:51:03;;;;;;;0.9;0.9;;;;;;;10.1;100.0;101700;;;;
2023/02/17 01:52:04;;;;;;;0.9;0.9;;;;;;;10.1;100.0;101700;;;;
2023/02/17 01:53:02;;;;;;;0.9;0.9;;;;;;;10.1;100.0;101700;;;;
2023/02/17 01:54:03;;;;;;;0.9;0.9;;;;;;;10.1;100.0;101700;;;;
2023/02/17 01:55:02;;;;;;;0.9;0.9;;;;;;;10.1;100.0;101700;;;;
2023/02/17 01:56:00;;;;;;;0.9;0.9;;;;;;;10.1;100.0;101700;;;;
2023/02/17 01:57:00;;;;;;;0.9;0.9;;;;;;;10.1;100.0;101700;;;;
2023/02/17 01:58:02;;;;;;;0.9;0.9;;;;;;;10.1;100.0;101700;;;;
2023/02/17 01:59:04;;;;;;;0.9;0.9;;;;;;;10.1;100.0;101700;;;;
2023/02/17 02:00:00;;;;;;;1.1;1.1;;;;;;;10.1;100.0;101700;;;;
2023/02/17 02:01:02;;;;;;;1.1;1.1;;;;;;;10.1;100.0;101700;;;;
2023/02/17 02:02:02;;;;;;;1.1;1.1;;;;;;;10.1;100.0;101700;;;;
2023/02/17 02:03:01;;;;;;;1.1;1.1;;;;;;;10.0;100.0;101700;;;;
2023/02/17 02:04:02;;;;;;;1.1;1.1;;;;;;;10.0;100.0;101700;;;;
2023/02/17 02:05:01;;;;;;;1.1;1.1;;;;;;;10.1;100.0;101710;;;;
2023/02/17 02:06:03;;;;;;;1.1;1.1;;;;;;;10.1;100.0;101710;;;;
2023/02/17 02:07:01;;;;;;;1.1;1.1;;;;;;;10.1;100.0;101710;;;;
2023/02/17 02:08:00;;;;;;;1.1;1.1;;;;;;;10.1;100.0;101710;;;;
2023/02/17 02:09:09;;;;;;;1.1;1.1;;;;;;;10.1;100.0;101700;;;;
2023/02/17 02:10:00;;;;;;;1.1;1.1;;;;;;;10.1;100.0;101700;;;;
2023/02/17 02:11:00;;;;;;;1.1;1.1;;;;;;;10.2;100.0;101700;;;;
2023/02/17 02:12:00;;;;;;;1.1;1.1;;;;;;;10.2;100.0;101700;;;;
2023/02/17 02:13:00;;;;;;;1.1;1.1;;;;;;;10.2;100.0;101700;;;;
2023/02/17 02:14:00;;;;;;;1.1;1.1;;;;;;;10.2;100.0;101700;;;;
2023/02/17 02:15:02;;;;;;;1.1;1.1;;;;;;;10.1;100.0;101700;;;;
2023/02/17 02:16:08;;;;;;;1.1;1.1;;;;;;;10.1;100.0;101700;;;;
2023/02/17 02:17:08;;;;;;;1.1;1.1;;;;;;;10.1;100.0;101710;;;;
2023/02/17 02:18:10;;;;;;;1.1;1.1;;;;;;;10.1;100.0;101710;;;;
2023/02/17 02:19:10;;;;;;;1.1;1.1;;;;;;;10.1;100.0;101710;;;;
2023/02/17 02:20:00;;;;;;;1.2;1.2;;;;;;;10.1;100.0;101710;;;;
2023/02/17 02:21:10;;;;;;;1.2;1.2;;;;;;;10.2;100.0;101700;;;;
2023/02/17 02:22:01;;;;;;;1.2;1.2;;;;;;;10.2;100.0;101700;;;;
2023/02/17 02:23:10;;;;;;;1.2;1.2;;;;;;;10.2;100.0;101700;;;;
2023/02/17 02:24:05;;;;;;;1.2;1.2;;;;;;;10.2;100.0;101700;;;;
2023/02/17 02:25:01;;;;;;;1.2;1.2;;;;;;;10.2;100.0;101690;;;;
2023/02/17 02:26:10;;;;;;;1.2;1.2;;;;;;;10.2;100.0;101690;;;;
2023/02/17 02:27:10;;;;;;;1.2;1.2;;;;;;;10.1;100.0;101690;;;;
2023/02/17 02:28:10;;;;;;;1.2;1.2;;;;;;;10.1;100.0;101690;;;;
2023/02/17 02:29:10;;;;;;;1.2;1.2;;;;;;;10.2;100.0;101680;;;;
2023/02/17 02:30:10;;;;;;;1.2;1.2;;;;;;;10.2;100.0;101680;;;;
2023/02/17 02:31:01;;;;;;;1.2;1.2;;;;;;;10.2;100.0;101690;;;;
2023/02/17 02:32:03;;;;;;;1.2;1.2;;;;;;;10.2;100.0;101690;;;;
2023/02/17 02:33:03;;;;;;;1.2;1.2;;;;;;;10.2;100.0;101680;;;;
2023/02/17 02:34:10;;;;;;;1.2;1.2;;;;;;;10.2;100.0;101680;;;;
2023/02/17 02:35:10;;;;;;;1.2;1.2;;;;;;;10.1;100.0;101680;;;;
2023/02/17 02:36:08;;;;;;;1.2;1.2;;;;;;;10.1;100.0;101680;;;;
2023/02/17 02:37:04;;;;;;;1.2;1.2;;;;;;;10.1;100.0;101670;;;;
2023/02/17 02:38:07;;;;;;;1.2;1.2;;;;;;;10.1;100.0;101670;;;;
2023/02/17 02:39:03;;;;;;;1.2;1.2;;;;;;;10.1;100.0;101670;;;;
2023/02/17 02:40:02;;;;;;;0.8;0.8;;;;;;;10.1;100.0;101670;;;;
2023/02/17 02:41:04;;;;;;;0.8;0.8;;;;;;;10.0;100.0;101660;;;;
2023/02/17 02:42:03;;;;;;;0.8;0.8;;;;;;;10.0;100.0;101660;;;;
2023/02/17 02:43:01;;;;;;;0.8;0.8;;;;;;;10.1;100.0;101650;;;;
2023/02/17 02:44:03;;;;;;;0.8;0.8;;;;;;;10.1;100.0;101650;;;;
2023/02/17 02:45:00;;;;;;;0.8;0.8;;;;;;;10.1;100.0;101650;;;;
2023/02/17 02:46:00;;;;;;;0.8;0.8;;;;;;;10.1;100.0;101650;;;;
2023/02/17 02:47:03;;;;;;;0.8;0.8;;;;;;;10.0;100.0;101650;;;;
2023/02/17 02:48:00;;;;;;;0.8;0.8;;;;;;;10.0;100.0;101650;;;;
2023/02/17 02:49:01;;;;;;;0.8;0.8;;;;;;;10.0;100.0;101650;;;;
2023/02/17 02:50:00;;;;;;;0.8;0.8;;;;;;;10.0;100.0;101650;;;;
2023/02/17 02:51:10;;;;;;;0.8;0.8;;;;;;;10.0;100.0;101640;;;;
2023/02/17 02:52:00;;;;;;;0.8;0.8;;;;;;;10.0;100.0;101640;;;;
2023/02/17 02:53:07;;;;;;;0.8;0.8;;;;;;;9.9;100.0;101630;;;;
2023/02/17 02:54:10;;;;;;;0.8;0.8;;;;;;;9.9;100.0;101630;;;;
2023/02/17 02:55:06;;;;;;;0.8;0.8;;;;;;;10.1;100.0;101630;;;;
2023/02/17 02:56:08;;;;;;;0.8;0.8;;;;;;;10.1;100.0;101630;;;;
2023/02/17 02:57:08;;;;;;;0.8;0.8;;;;;;;10.1;100.0;101630;;;;
2023/02/17 02:58:01;;;;;;;0.8;0.8;;;;;;;10.1;100.0;101630;;;;
2023/02/17 02:59:09;;;;;;;0.8;0.8;;;;;;;10.0;100.0;101620;;;;
2023/02/17 03:00:01;;;;;;;0.9;0.9;;;;;;;10.0;100.0;101620;;;;
2023/02/17 03:01:05;;;;;;;0.9;0.9;;;;;;;10.0;100.0;101620;;;;
2023/02/17 03:02:10;;;;;;;0.9;0.9;;;;;;;10.0;100.0;101620;;;;
2023/02/17 03:03:10;;;;;;;0.9;0.9;;;;;;;10.0;100.0;101620;;;;
2023/02/17 03:04:10;;;;;;;0.9;0.9;;;;;;;10.0;100.0;101620;;;;
2023/02/17 03:05:10;;;;;;;0.9;0.9;;;;;;;10.0;100.0;101610;;;;
2023/02/17 03:06:04;;;;;;;0.9;0.9;;;;;;;10.0;100.0;101610;;;;
2023/02/17 03:07:10;;;;;;;0.9;0.9;;;;;;;10.0;100.0;101630;;;;
2023/02/17 03:08:03;;;;;;;0.9;0.9;;;;;;;10.0;100.0;101630;;;;
2023/02/17 03:09:10;;;;;;;0.9;0.9;;;;;;;10.0;100.0;101620;;;;
2023/02/17 03:10:00;;;;;;;0.9;0.9;;;;;;;10.0;100.0;101620;;;;
2023/02/17 03:11:01;;;;;;;0.9;0.9;;;;;;;10.0;100.0;101630;;;;
2023/02/17 03:12:00;;;;;;;0.9;0.9;;;;;;;10.0;100.0;101630;;;;
2023/02/17 03:13:01;;;;;;;0.9;0.9;;;;;;;10.0;100.0;101630;;;;
2023/02/17 03:14:05;;;;;;;0.9;0.9;;;;;;;10.0;100.0;101630;;;;
2023/02/17 03:15:03;;;;;;;0.9;0.9;;;;;;;10.0;100.0;101630;;;;
2023/02/17 03:16:00;;;;;;;0.9;0.9;;;;;;;10.0;100.0;101630;;;;
2023/02/17 03:17:00;;;;;;;0.9;0.9;;;;;;;10.0;100.0;101630;;;;
2023/02/17 03:18:01;;;;;;;0.9;0.9;;;;;;;10.0;100.0;101630;;;;
2023/02/17 03:19:00;;;;;;;0.9;0.9;;;;;;;10.1;100.0;101620;;;;
2023/02/17 03:20:02;;;;;;;0.9;0.9;;;;;;;10.1;100.0;101620;;;;
2023/02/17 03:21:03;;;;;;;0.9;0.9;;;;;;;9.9;100.0;101630;;;;
2023/02/17 03:22:04;;;;;;;0.9;0.9;;;;;;;9.9;100.0;101630;;;;
2023/02/17 03:23:00;;;;;;;0.9;0.9;;;;;;;10.0;100.0;101620;;;;
2023/02/17 03:24:00;;;;;;;0.9;0.9;;;;;;;10.0;100.0;101620;;;;
2023/02/17 03:25:00;;;;;;;0.9;0.9;;;;;;;9.9;100.0;101630;;;;
2023/02/17 03:26:00;;;;;;;0.9;0.9;;;;;;;9.9;100.0;101630;;;;
2023/02/17 03:27:00;;;;;;;0.9;0.9;;;;;;;9.9;100.0;101630;;;;
2023/02/17 03:28:00;;;;;;;0.9;0.9;;;;;;;9.9;100.0;101630;;;;
2023/02/17 03:29:00;;;;;;;0.9;0.9;;;;;;;9.9;100.0;101640;;;;
2023/02/17 03:30:00;;;;;;;0.9;0.9;;;;;;;9.9;100.0;101640;;;;
2023/02/17 03:31:00;;;;;;;0.9;0.9;;;;;;;9.9;100.0;101630;;;;
2023/02/17 03:32:00;;;;;;;0.9;0.9;;;;;;;9.9;100.0;101630;;;;
2023/02/17 03:33:00;;;;;;;0.9;0.9;;;;;;;9.9;100.0;101630;;;;
2023/02/17 03:34:00;;;;;;;0.9;0.9;;;;;;;9.9;100.0;101630;;;;
2023/02/17 03:35:00;;;;;;;0.9;0.9;;;;;;;9.9;100.0;101630;;;;
2023/02/17 03:36:00;;;;;;;0.9;0.9;;;;;;;9.9;100.0;101630;;;;
2023/02/17 03:37:00;;;;;;;0.9;0.9;;;;;;;9.9;100.0;101630;;;;
2023/02/17 03:38:00;;;;;;;0.9;0.9;;;;;;;9.9;100.0;101630;;;;
2023/02/17 03:39:00;;;;;;;0.9;0.9;;;;;;;10.0;100.0;101630;;;;
2023/02/17 03:40:00;;;;;;;0.9;0.9;;;;;;;10.0;100.0;101630;;;;
2023/02/17 03:41:00;;;;;;;0.9;0.9;;;;;;;10.0;100.0;101620;;;;
2023/02/17 03:42:00;;;;;;;0.9;0.9;;;;;;;10.0;100.0;101620;;;;
2023/02/17 03:43:00;;;;;;;0.9;0.9;;;;;;;9.9;100.0;101620;;;;
2023/02/17 03:44:00;;;;;;;0.9;0.9;;;;;;;9.9;100.0;101620;;;;
2023/02/17 03:45:00;;;;;;;0.9;0.9;;;;;;;10.0;100.0;101620;;;;
2023/02/17 03:46:00;;;;;;;0.9;0.9;;;;;;;10.0;100.0;101620;;;;
2023/02/17 03:47:00;;;;;;;0.9;0.9;;;;;;;9.9;100.0;101620;;;;
2023/02/17 03:48:00;;;;;;;0.9;0.9;;;;;;;9.9;100.0;101620;;;;
2023/02/17 03:49:00;;;;;;;0.9;0.9;;;;;;;9.9;100.0;101620;;;;
2023/02/17 03:50:00;;;;;;;0.9;0.9;;;;;;;9.9;100.0;101620;;;;
2023/02/17 03:51:08;;;;;;;0.9;0.9;;;;;;;9.9;100.0;101620;;;;
2023/02/17 03:52:00;;;;;;;0.9;0.9;;;;;;;9.9;100.0;101620;;;;
2023/02/17 03:53:00;;;;;;;0.9;0.9;;;;;;;9.9;100.0;101620;;;;
2023/02/17 03:54:00;;;;;;;0.9;0.9;;;;;;;9.9;100.0;101620;;;;
2023/02/17 03:55:00;;;;;;;0.9;0.9;;;;;;;9.9;100.0;101610;;;;
2023/02/17 03:56:00;;;;;;;0.9;0.9;;;;;;;9.9;100.0;101610;;;;
2023/02/17 03:57:00;;;;;;;0.9;0.9;;;;;;;9.9;100.0;101600;;;;
2023/02/17 03:58:00;;;;;;;0.9;0.9;;;;;;;9.9;100.0;101600;;;;
2023/02/17 03:59:00;;;;;;;0.9;0.9;;;;;;;10.0;100.0;101600;;;;
2023/02/17 04:00:00;;;;;;;1.9;1.8;;;;;;;10.0;100.0;101600;;;;
2023/02/17 04:01:00;;;;;;;1.9;1.8;;;;;;;10.0;100.0;101610;;;;
2023/02/17 04:02:00;;;;;;;1.9;1.8;;;;;;;10.0;100.0;101610;;;;
2023/02/17 04:03:00;;;;;;;1.9;1.8;;;;;;;10.0;100.0;101610;;;;
2023/02/17 04:04:00;;;;;;;1.9;1.8;;;;;;;10.0;100.0;101610;;;;
2023/02/17 04:05:00;;;;;;;1.9;1.8;;;;;;;10.0;100.0;101620;;;;
2023/02/17 04:06:00;;;;;;;1.9;1.8;;;;;;;10.0;100.0;101620;;;;
2023/02/17 04:07:00;;;;;;;1.9;1.8;;;;;;;9.9;100.0;101610;;;;
2023/02/17 04:08:00;;;;;;;1.9;1.8;;;;;;;9.9;100.0;101610;;;;
2023/02/17 04:09:00;;;;;;;1.9;1.8;;;;;;;9.9;100.0;101610;;;;
2023/02/17 04:10:00;;;;;;;1.9;1.8;;;;;;;9.9;100.0;101610;;;;
2023/02/17 04:11:01;;;;;;;1.9;1.8;;;;;;;9.9;100.0;101610;;;;
2023/02/17 04:12:00;;;;;;;1.9;1.8;;;;;;;9.9;100.0;101610;;;;
2023/02/17 04:13:00;;;;;;;1.9;1.8;;;;;;;9.9;100.0;101610;;;;
2023/02/17 04:14:00;;;;;;;1.9;1.8;;;;;;;9.9;100.0;101610;;;;
2023/02/17 04:15:00;;;;;;;1.9;1.8;;;;;;;10.0;100.0;101610;;;;
2023/02/17 04:16:00;;;;;;;1.9;1.8;;;;;;;10.0;100.0;101610;;;;
2023/02/17 04:17:00;;;;;;;1.9;1.8;;;;;;;9.9;100.0;101610;;;;
2023/02/17 04:18:00;;;;;;;1.9;1.8;;;;;;;9.9;100.0;101610;;;;
2023/02/17 04:19:00;;;;;;;0.8;0.8;;;;;;;10.0;100.0;101610;;;;
2023/02/17 04:20:00;;;;;;;0.8;0.8;;;;;;;10.0;100.0;101610;;;;
2023/02/17 04:21:00;;;;;;;0.8;0.8;;;;;;;10.0;100.0;101610;;;;
2023/02/17 04:22:00;;;;;;;0.8;0.8;;;;;;;10.0;100.0;101610;;;;
2023/02/17 04:23:00;;;;;;;0.8;0.8;;;;;;;10.1;100.0;101600;;;;
2023/02/17 04:24:01;;;;;;;0.8;0.8;;;;;;;10.1;100.0;101600;;;;
2023/02/17 04:25:00;;;;;;;0.8;0.8;;;;;;;10.0;100.0;101610;;;;
2023/02/17 04:26:00;;;;;;;0.8;0.8;;;;;;;10.0;100.0;101610;;;;
2023/02/17 04:27:00;;;;;;;0.8;0.8;;;;;;;10.0;100.0;101610;;;;
2023/02/17 04:28:01;;;;;;;0.8;0.8;;;;;;;10.0;100.0;101610;;;;
2023/02/17 04:29:02;;;;;;;0.8;0.8;;;;;;;10.0;100.0;101620;;;;
2023/02/17 04:30:00;;;;;;;0.8;0.8;;;;;;;10.0;100.0;101620;;;;
2023/02/17 04:31:00;;;;;;;0.8;0.8;;;;;;;9.9;100.0;101610;;;;
2023/02/17 04:32:00;;;;;;;0.8;0.8;;;;;;;9.9;100.0;101610;;;;
2023/02/17 04:33:00;;;;;;;0.8;0.8;;;;;;;10.0;100.0;101620;;;;
2023/02/17 04:34:00;;;;;;;0.8;0.8;;;;;;;10.0;100.0;101620;;;;
2023/02/17 04:35:00;;;;;;;0.8;0.8;;;;;;;10.0;100.0;101620;;;;
2023/02/17 04:36:00;;;;;;;0.8;0.8;;;;;;;10.0;100.0;101620;;;;
2023/02/17 04:37:00;;;;;;;0.8;0.8;;;;;;;10.0;100.0;101610;;;;
2023/02/17 04:38:00;;;;;;;0.8;0.8;;;;;;;10.0;100.0;101610;;;;
2023/02/17 04:39:00;;;;;;;0.8;0.8;;;;;;;10.0;100.0;101610;;;;
2023/02/17 04:40:00;;;;;;;0.8;0.8;;;;;;;10.0;100.0;101610;;;;
2023/02/17 04:41:00;;;;;;;0.8;0.8;;;;;;;9.9;100.0;101610;;;;
2023/02/17 04:42:00;;;;;;;0.8;0.8;;;;;;;9.9;100.0;101610;;;;
2023/02/17 04:43:00;;;;;;;0.8;0.8;;;;;;;9.9;100.0;101630;;;;
2023/02/17 04:44:00;;;;;;;0.8;0.8;;;;;;;9.9;100.0;101630;;;;
2023/02/17 04:45:00;;;;;;;0.8;0.8;;;;;;;9.9;100.0;101630;;;;
2023/02/17 04:46:00;;;;;;;0.8;0.8;;;;;;;9.9;100.0;101630;;;;
2023/02/17 04:47:00;;;;;;;0.8;0.8;;;;;;;9.9;100.0;101630;;;;
2023/02/17 04:48:00;;;;;;;0.8;0.8;;;;;;;9.9;100.0;101630;;;;
2023/02/17 04:49:00;;;;;;;0.8;0.8;;;;;;;10.0;100.0;101620;;;;
2023/02/17 04:50:00;;;;;;;0.8;0.8;;;;;;;10.0;100.0;101620;;;;
2023/02/17 04:51:00;;;;;;;0.8;0.8;;;;;;;9.9;100.0;101620;;;;
2023/02/17 04:52:00;;;;;;;0.8;0.8;;;;;;;9.9;100.0;101620;;;;
2023/02/17 04:53:00;;;;;;;0.8;0.8;;;;;;;10.0;100.0;101620;;;;
2023/02/17 04:54:00;;;;;;;0.8;0.8;;;;;;;10.0;100.0;101620;;;;
2023/02/17 04:55:00;;;;;;;0.8;0.8;;;;;;;10.0;100.0;101620;;;;
2023/02/17 04:56:00;;;;;;;0.8;0.8;;;;;;;10.0;100.0;101620;;;;
2023/02/17 04:57:00;;;;;;;0.8;0.8;;;;;;;9.9;100.0;101610;;;;
2023/02/17 04:58:00;;;;;;;0.8;0.8;;;;;;;9.9;100.0;101610;;;;
2023/02/17 04:59:00;;;;;;;0.7;0.7;;;;;;;9.9;100.0;101620;;;;
2023/02/17 05:00:00;;;;;;;0.7;0.7;;;;;;;9.9;100.0;101620;;;;
2023/02/17 05:01:00;;;;;;;0.7;0.7;;;;;;;9.9;100.0;101620;;;;
2023/02/17 05:02:00;;;;;;;0.7;0.7;;;;;;;9.9;100.0;101620;;;;
2023/02/17 05:03:00;;;;;;;0.7;0.7;;;;;;;9.9;100.0;101610;;;;
2023/02/17 05:04:00;;;;;;;0.7;0.7;;;;;;;9.9;100.0;101610;;;;
2023/02/17 05:05:00;;;;;;;0.7;0.7;;;;;;;10.0;100.0;101590;;;;
2023/02/17 05:06:00;;;;;;;0.7;0.7;;;;;;;10.0;100.0;101590;;;;
2023/02/17 05:07:00;;;;;;;0.7;0.7;;;;;;;10.0;100.0;101590;;;;
2023/02/17 05:08:00;;;;;;;0.7;0.7;;;;;;;10.0;100.0;101590;;;;
2023/02/17 05:09:00;;;;;;;0.7;0.7;;;;;;;9.9;100.0;101590;;;;
2023/02/17 05:10:00;;;;;;;0.7;0.7;;;;;;;9.9;100.0;101590;;;;
2023/02/17 05:11:00;;;;;;;0.7;0.7;;;;;;;9.9;100.0;101600;;;;
2023/02/17 05:12:01;;;;;;;0.7;0.7;;;;;;;9.9;100.0;101600;;;;
2023/02/17 05:13:00;;;;;;;0.7;0.7;;;;;;;10.0;100.0;101600;;;;
2023/02/17 05:14:00;;;;;;;0.7;0.7;;;;;;;10.0;100.0;101600;;;;
2023/02/17 05:15:00;;;;;;;0.7;0.7;;;;;;;9.8;100.0;101600;;;;
2023/02/17 05:16:00;;;;;;;0.7;0.7;;;;;;;9.8;100.0;101600;;;;
2023/02/17 05:17:00;;;;;;;0.7;0.7;;;;;;;9.9;100.0;101590;;;;
2023/02/17 05:18:00;;;;;;;0.7;0.7;;;;;;;9.9;100.0;101590;;;;
2023/02/17 05:19:00;;;;;;;1.2;1.2;;;;;;;10.0;100.0;101590;;;;
2023/02/17 05:20:00;;;;;;;1.2;1.2;;;;;;;10.0;100.0;101590;;;;
2023/02/17 05:21:00;;;;;;;1.2;1.2;;;;;;;10.0;100.0;101590;;;;
2023/02/17 05:22:00;;;;;;;1.2;1.2;;;;;;;10.0;100.0;101590;;;;
2023/02/17 05:23:00;;;;;;;1.2;1.2;;;;;;;10.1;100.0;101590;;;;
2023/02/17 05:24:00;;;;;;;1.2;1.2;;;;;;;10.1;100.0;101590;;;;
2023/02/17 05:25:00;;;;;;;1.2;1.2;;;;;;;10.1;100.0;101600;;;;
2023/02/17 05:26:00;;;;;;;1.2;1.2;;;;;;;10.1;100.0;101600;;;;
2023/02/17 05:27:00;;;;;;;1.2;1.2;;;;;;;10.1;100.0;101600;;;;
2023/02/17 05:28:00;;;;;;;1.2;1.2;;;;;;;10.1;100.0;101600;;;;
2023/02/17 05:29:00;;;;;;;1.2;1.2;;;;;;;10.1;100.0;101610;;;;
2023/02/17 05:30:00;;;;;;;1.2;1.2;;;;;;;10.1;100.0;101610;;;;
2023/02/17 05:31:01;;;;;;;1.2;1.2;;;;;;;10.0;100.0;101600;;;;
2023/02/17 05:32:00;;;;;;;1.2;1.2;;;;;;;10.0;100.0;101600;;;;
2023/02/17 05:33:00;;;;;;;1.2;1.2;;;;;;;10.1;100.0;101600;;;;
2023/02/17 05:34:00;;;;;;;1.2;1.2;;;;;;;10.1;100.0;101600;;;;
2023/02/17 05:35:00;;;;;;;1.2;1.2;;;;;;;10.0;100.0;101600;;;;
2023/02/17 05:36:01;;;;;;;1.2;1.2;;;;;;;10.0;100.0;101600;;;;
2023/02/17 05:37:00;;;;;;;1.2;1.2;;;;;;;10.1;100.0;101610;;;;
2023/02/17 05:38:00;;;;;;;1.2;1.2;;;;;;;10.1;100.0;101610;;;;
2023/02/17 05:39:00;;;;;;;1.4;1.4;;;;;;;10.0;100.0;101610;;;;
2023/02/17 05:40:00;;;;;;;1.4;1.4;;;;;;;10.0;100.0;101610;;;;
2023/02/17 05:41:00;;;;;;;1.4;1.4;;;;;;;10.0;100.0;101600;;;;
2023/02/17 05:42:00;;;;;;;1.4;1.4;;;;;;;10.0;100.0;101600;;;;
2023/02/17 05:43:00;;;;;;;1.4;1.4;;;;;;;10.1;100.0;101600;;;;
2023/02/17 05:44:00;;;;;;;1.4;1.4;;;;;;;10.1;100.0;101600;;;;
2023/02/17 05:45:00;;;;;;;1.4;1.4;;;;;;;10.0;100.0;101610;;;;
2023/02/17 05:46:01;;;;;;;1.4;1.4;;;;;;;10.0;100.0;101610;;;;
2023/02/17 05:47:00;;;;;;;1.4;1.4;;;;;;;9.9;100.0;101620;;;;
2023/02/17 05:48:00;;;;;;;1.4;1.4;;;;;;;9.9;100.0;101620;;;;
2023/02/17 05:49:00;;;;;;;1.4;1.4;;;;;;;9.9;100.0;101620;;;;
2023/02/17 05:50:00;;;;;;;1.4;1.4;;;;;;;9.9;100.0;101620;;;;
2023/02/17 05:51:00;;;;;;;1.4;1.4;;;;;;;9.8;100.0;101610;;;;
2023/02/17 05:52:01;;;;;;;1.4;1.4;;;;;;;9.8;100.0;101610;;;;
2023/02/17 05:53:00;;;;;;;1.4;1.4;;;;;;;9.9;100.0;101610;;;;
2023/02/17 05:54:00;;;;;;;1.4;1.4;;;;;;;9.9;100.0;101610;;;;
2023/02/17 05:55:02;;;;;;;1.4;1.4;;;;;;;9.9;100.0;101610;;;;
2023/02/17 05:56:00;;;;;;;1.4;1.4;;;;;;;9.9;100.0;101610;;;;
2023/02/17 05:57:00;;;;;;;1.4;1.4;;;;;;;10.1;100.0;101610;;;;
2023/02/17 05:58:00;;;;;;;1.4;1.4;;;;;;;10.1;100.0;101610;;;;
2023/02/17 05:59:00;;;;;;;0.9;0.9;;;;;;;10.0;100.0;101620;;;;
2023/02/17 06:00:00;;;;;;;0.9;0.9;;;;;;;10.0;100.0;101620;;;;
2023/02/17 06:01:00;;;;;;;0.9;0.9;;;;;;;9.9;100.0;101610;;;;
2023/02/17 06:02:00;;;;;;;0.9;0.9;;;;;;;9.9;100.0;101610;;;;
2023/02/17 06:03:00;;;;;;;0.9;0.9;;;;;;;10.0;100.0;101610;;;;
2023/02/17 06:04:00;;;;;;;0.9;0.9;;;;;;;10.0;100.0;101610;;;;
2023/02/17 06:05:00;;;;;;;0.9;0.9;;;;;;;9.9;100.0;101610;;;;
2023/02/17 06:06:00;;;;;;;0.9;0.9;;;;;;;9.9;100.0;101610;;;;
2023/02/17 06:07:00;;;;;;;0.9;0.9;;;;;;;10.0;100.0;101610;;;;
2023/02/17 06:08:00;;;;;;;0.9;0.9;;;;;;;10.0;100.0;101610;;;;
2023/02/17 06:09:00;;;;;;;0.9;0.9;;;;;;;10.0;100.0;101590;;;;
2023/02/17 06:10:00;;;;;;;0.9;0.9;;;;;;;10.0;100.0;101590;;;;
2023/02/17 06:11:00;;;;;;;0.9;0.9;;;;;;;10.0;100.0;101580;;;;
2023/02/17 06:12:00;;;;;;;0.9;0.9;;;;;;;10.0;100.0;101580;;;;
2023/02/17 06:13:00;;;;;;;0.9;0.9;;;;;;;10.0;100.0;101590;;;;
2023/02/17 06:14:00;;;;;;;0.9;0.9;;;;;;;10.0;100.0;101590;;;;
2023/02/17 06:15:00;;;;;;;0.9;0.9;;;;;;;9.9;100.0;101600;;;;
2023/02/17 06:16:00;;;;;;;0.9;0.9;;;;;;;9.9;100.0;101600;;;;
2023/02/17 06:17:02;;;;;;;0.9;0.9;;;;;;;9.9;100.0;101600;;;;
2023/02/17 06:18:00;;;;;;;0.9;0.9;;;;;;;9.9;100.0;101600;;;;
2023/02/17 06:19:01;;;;;;;0.9;0.9;;;;;;;9.9;100.0;101600;;;;
2023/02/17 06:20:00;;;;;;;0.9;0.9;;;;;;;9.9;100.0;101600;;;;
2023/02/17 06:21:00;;;;;;;0.9;0.9;;;;;;;10.0;100.0;101600;;;;
2023/02/17 06:22:00;;;;;;;0.9;0.9;;;;;;;10.0;100.0;101600;;;;
2023/02/17 06:23:00;;;;;;;0.9;0.9;;;;;;;10.0;100.0;101600;;;;
2023/02/17 06:24:00;;;;;;;0.9;0.9;;;;;;;10.0;100.0;101600;;;;